Alijilan, Argentina
Current Conditions -  °F | °C
As of 6:00 AM on Sunday 21 Dec 2014 (Local Time) from SANT Reporting Station
Drizzle Drizzle  
Wind Chill: 63°   Ceiling: 800
Heat Index: 63°   Visibility: 4mi
Dew Point: 61°   Wind: 16mph
Humidity: 94%   Direction: 180°S
Pressure: 29.85"   Gusts: NA
Location:  28.1°S, 65.47°W
Report Text: SANT 210900Z 18014KT 6000 DZ BKN008 OVC03517/16 Q1011
Loading
Personal Weather Stations






























Interactive Weather Map New forecast layout! Learn more

10-Day Weather Forecast

Advertisements
Track Severe Weather on mobile